createdAt,value
2023-02-09T00:01:03.151Z,6.90
2023-02-09T00:04:26.849Z,7.73
2023-02-09T00:07:50.658Z,7.03
2023-02-09T00:11:21.766Z,7.40
2023-02-09T00:14:44.321Z,7.50
2023-02-09T00:18:09.212Z,7.13
2023-02-09T00:21:33.960Z,14.73
2023-02-09T00:24:57.572Z,7.17
2023-02-09T00:28:22.158Z,7.10
2023-02-09T00:31:47.537Z,9.77
2023-02-09T00:35:12.401Z,7.63
2023-02-09T00:38:37.069Z,8.07
2023-02-09T00:42:11.064Z,7.33
2023-02-09T00:45:35.023Z,6.27
2023-02-09T00:48:58.536Z,8.30
2023-02-09T00:52:23.548Z,7.50
2023-02-09T00:55:48.239Z,5.90
2023-02-09T00:59:12.400Z,7.33
2023-02-09T01:02:36.790Z,8.47
2023-02-09T01:06:01.002Z,7.90
2023-02-09T01:09:26.745Z,7.00
2023-02-09T01:12:50.974Z,8.80
2023-02-09T01:16:19.273Z,9.07
2023-02-09T01:19:43.178Z,10.70
2023-02-09T01:23:07.092Z,9.27
2023-02-09T01:26:32.001Z,9.40
2023-02-09T01:29:55.639Z,7.70
2023-02-09T01:33:19.561Z,8.37
2023-02-09T01:36:45.451Z,11.17
2023-02-09T01:40:11.689Z,6.80
2023-02-09T01:44:02.233Z,6.03
2023-02-09T01:47:26.402Z,6.23
2023-02-09T01:50:54.839Z,8.10
2023-02-09T01:54:24.281Z,6.97
2023-02-09T01:57:53.691Z,7.87
2023-02-09T02:01:19.556Z,6.70
2023-02-09T02:04:46.210Z,7.77
2023-02-09T02:08:17.883Z,8.07
2023-02-09T02:11:45.185Z,6.53
2023-02-09T02:15:10.197Z,8.73
2023-02-09T02:18:58.120Z,8.87
2023-02-09T02:22:57.456Z,8.07
2023-02-09T02:26:56.547Z,9.60
2023-02-09T02:30:53.834Z,7.87
2023-02-09T02:34:27.458Z,8.93
2023-02-09T02:38:04.057Z,6.60
2023-02-09T02:41:52.565Z,7.10
2023-02-09T02:45:30.707Z,8.80
2023-02-09T02:48:58.276Z,7.73
2023-02-09T02:52:23.278Z,6.90
2023-02-09T02:55:49.304Z,8.93
2023-02-09T02:59:20.637Z,6.87
2023-02-09T03:02:49.790Z,9.27
2023-02-09T03:06:15.086Z,8.37
2023-02-09T03:09:50.592Z,8.27
2023-02-09T03:13:33.015Z,9.50
2023-02-09T03:17:13.160Z,11.20
2023-02-09T03:20:45.127Z,11.87
2023-02-09T03:24:18.930Z,13.20
2023-02-09T03:27:53.382Z,9.57
2023-02-09T03:31:17.722Z,8.27
2023-02-09T03:34:41.618Z,12.90
2023-02-09T03:38:07.057Z,22.80
2023-02-09T03:41:30.633Z,15.50
2023-02-09T03:44:55.775Z,13.50
2023-02-09T03:48:20.055Z,12.80
2023-02-09T03:51:43.983Z,11.63
2023-02-09T03:55:08.368Z,8.43
2023-02-09T03:58:32.114Z,10.13
2023-02-09T04:02:00.117Z,10.33
2023-02-09T04:05:24.240Z,9.13
2023-02-09T04:08:47.894Z,7.17
2023-02-09T04:12:11.539Z,7.20
2023-02-09T04:15:35.073Z,9.47
2023-02-09T04:19:00.090Z,10.20
2023-02-09T04:22:23.645Z,8.50
2023-02-09T04:25:47.096Z,8.60
2023-02-09T04:29:10.621Z,10.77
2023-02-09T04:32:34.340Z,8.10
2023-02-09T04:35:59.584Z,8.30
2023-02-09T04:39:23.153Z,8.77
2023-02-09T04:42:47.311Z,9.60
2023-02-09T04:46:14.328Z,11.07
2023-02-09T04:49:37.944Z,9.50
2023-02-09T04:53:02.746Z,9.43
2023-02-09T04:56:26.291Z,9.20
2023-02-09T04:59:48.772Z,7.67
2023-02-09T05:03:12.251Z,10.70
2023-02-09T05:06:35.783Z,11.40
2023-02-09T05:10:00.592Z,11.50
2023-02-09T05:13:26.162Z,11.07
2023-02-09T05:16:50.222Z,10.57
2023-02-09T05:20:13.824Z,9.20
2023-02-09T05:23:43.529Z,9.47
2023-02-09T05:27:08.303Z,9.17
2023-02-09T05:30:32.270Z,11.27
2023-02-09T05:33:55.734Z,12.47
2023-02-09T05:37:19.300Z,13.23
2023-02-09T05:40:45.063Z,13.37
2023-02-09T05:44:10.492Z,12.57
2023-02-09T05:47:34.065Z,11.47
2023-02-09T05:50:57.531Z,9.80
2023-02-09T05:54:21.022Z,8.97
2023-02-09T05:57:44.566Z,9.47
2023-02-09T06:01:09.456Z,11.50
2023-02-09T06:04:33.542Z,10.03
2023-02-09T06:07:57.992Z,10.03
2023-02-09T06:11:21.602Z,10.13
2023-02-09T06:14:45.210Z,10.70
2023-02-09T06:18:10.576Z,10.20
2023-02-09T06:21:34.503Z,8.97
2023-02-09T06:24:57.990Z,8.57
2023-02-09T06:28:22.001Z,10.07
2023-02-09T06:31:45.641Z,10.70
2023-02-09T06:35:10.703Z,10.40
2023-02-09T06:38:36.521Z,10.13
2023-02-09T06:42:00.040Z,10.37
2023-02-09T06:45:23.644Z,9.80
2023-02-09T06:48:47.187Z,9.40
2023-02-09T06:52:12.221Z,7.40
2023-02-09T06:55:36.248Z,8.40
2023-02-09T06:58:59.777Z,11.10
2023-02-09T07:02:23.406Z,10.60
2023-02-09T07:05:46.997Z,14.90
2023-02-09T07:09:11.892Z,11.23
2023-02-09T07:12:35.749Z,9.97
2023-02-09T07:16:01.340Z,11.37
2023-02-09T07:19:24.951Z,12.90
2023-02-09T07:22:48.588Z,13.37
2023-02-09T07:26:16.780Z,13.37
2023-02-09T07:29:40.452Z,17.50
2023-02-09T07:33:04.234Z,21.87
2023-02-09T07:36:28.460Z,14.97
2023-02-09T07:39:52.113Z,11.97
2023-02-09T07:43:17.151Z,15.10
2023-02-09T07:46:40.787Z,12.17
2023-02-09T07:50:04.663Z,12.80
2023-02-09T07:53:29.413Z,12.73
2023-02-09T07:56:55.598Z,11.60
2023-02-09T08:00:22.398Z,12.23
2023-02-09T08:03:48.589Z,14.13
2023-02-09T08:07:12.046Z,11.07
2023-02-09T08:10:37.573Z,13.40
2023-02-09T08:14:07.948Z,10.17
2023-02-09T08:17:32.844Z,10.00
2023-02-09T08:20:57.211Z,12.07
2023-02-09T08:24:22.448Z,10.87
2023-02-09T08:27:48.003Z,9.30
2023-02-09T08:31:11.839Z,11.93
2023-02-09T08:34:36.828Z,11.20
2023-02-09T08:38:04.955Z,16.97
2023-02-09T08:41:28.514Z,13.00
2023-02-09T08:44:51.997Z,15.73
2023-02-09T08:48:16.485Z,14.37
2023-02-09T08:51:41.474Z,16.10
2023-02-09T08:55:08.690Z,15.67
2023-02-09T08:58:33.334Z,14.20
2023-02-09T09:01:56.867Z,26.47
2023-02-09T09:05:20.687Z,18.03
2023-02-09T09:08:45.635Z,23.07
2023-02-09T09:12:09.547Z,15.07
2023-02-09T09:15:33.063Z,16.20
2023-02-09T09:18:57.096Z,14.50
2023-02-09T09:22:20.693Z,19.00
2023-02-09T09:25:46.058Z,15.80
2023-02-09T09:29:11.075Z,14.47
2023-02-09T09:32:35.091Z,15.67
2023-02-09T09:36:02.118Z,14.97
2023-02-09T09:39:26.791Z,18.20
2023-02-09T09:42:55.983Z,14.50
2023-02-09T09:46:27.978Z,18.70
2023-02-09T09:49:51.579Z,17.70
2023-02-09T09:53:31.809Z,14.93
2023-02-09T09:56:56.309Z,19.87
2023-02-09T10:00:25.813Z,19.40
2023-02-09T10:03:49.417Z,21.27
2023-02-09T10:07:20.834Z,19.27
2023-02-09T10:10:56.269Z,19.10
2023-02-09T10:14:21.803Z,16.60
2023-02-09T10:17:48.450Z,18.40
2023-02-09T10:21:15.396Z,20.97
2023-02-09T10:24:40.044Z,16.93
2023-02-09T10:28:06.464Z,14.70
2023-02-09T10:31:34.538Z,20.90
2023-02-09T10:35:04.244Z,21.00
2023-02-09T10:38:33.712Z,18.63
2023-02-09T10:42:13.141Z,17.63
2023-02-09T10:45:41.876Z,19.40
2023-02-09T10:49:29.311Z,17.80
2023-02-09T10:53:01.392Z,12.20
2023-02-09T10:56:28.781Z,11.00
2023-02-09T10:59:54.205Z,11.13
2023-02-09T11:03:22.161Z,9.77
2023-02-09T11:06:54.426Z,9.67
2023-02-09T11:10:20.465Z,10.30
2023-02-09T11:13:44.015Z,13.97
2023-02-09T11:17:26.258Z,17.10
2023-02-09T11:21:03.136Z,10.80
2023-02-09T11:24:47.064Z,12.77
2023-02-09T11:28:32.233Z,13.70
2023-02-09T11:32:20.393Z,12.20
2023-02-09T11:35:52.424Z,12.23
2023-02-09T11:39:26.203Z,11.77
2023-02-09T11:43:00.630Z,10.53
2023-02-09T11:46:29.924Z,11.27
2023-02-09T11:49:57.472Z,12.00
2023-02-09T11:53:35.715Z,11.70
2023-02-09T11:57:12.696Z,11.00
2023-02-09T12:00:55.937Z,10.77
2023-02-09T12:04:29.922Z,10.63
2023-02-09T12:08:25.783Z,10.93
2023-02-09T12:12:03.773Z,9.63
2023-02-09T12:15:38.333Z,11.07
2023-02-09T12:19:05.873Z,12.17
2023-02-09T12:22:56.482Z,14.33
2023-02-09T12:26:42.994Z,12.80
2023-02-09T12:31:00.826Z,15.97
2023-02-09T12:34:30.611Z,13.67
2023-02-09T12:38:18.037Z,15.70
2023-02-09T12:42:27.439Z,16.80
2023-02-09T12:46:43.802Z,17.90
2023-02-09T12:50:26.551Z,13.10
2023-02-09T12:53:53.312Z,12.90
2023-02-09T12:57:51.733Z,12.73
2023-02-09T13:01:17.237Z,15.40
2023-02-09T13:04:55.127Z,15.97
2023-02-09T13:08:33.471Z,12.80
2023-02-09T13:12:11.764Z,14.40
2023-02-09T13:15:53.538Z,12.37
2023-02-09T13:20:00.991Z,13.47
2023-02-09T13:23:35.458Z,12.57
2023-02-09T13:27:01.904Z,12.53
2023-02-09T13:30:31.328Z,13.77
2023-02-09T13:34:03.150Z,12.23
2023-02-09T13:37:40.125Z,12.80
2023-02-09T13:41:07.365Z,11.50
2023-02-09T13:44:32.300Z,11.37
2023-02-09T13:47:59.172Z,12.03
2023-02-09T13:51:23.942Z,10.43
2023-02-09T13:54:48.077Z,11.73
2023-02-09T13:58:21.119Z,9.43
2023-02-09T14:01:47.826Z,10.47
2023-02-09T14:05:11.611Z,10.93
2023-02-09T14:08:38.311Z,10.07
2023-02-09T14:12:08.679Z,11.07
2023-02-09T14:15:56.440Z,9.60
2023-02-09T14:19:33.156Z,10.93
2023-02-09T14:22:59.668Z,10.07
2023-02-09T14:26:27.530Z,12.37
2023-02-09T14:29:52.194Z,10.13
2023-02-09T14:33:24.956Z,11.23
2023-02-09T14:36:56.534Z,8.80
2023-02-09T14:40:31.909Z,10.67
2023-02-09T14:44:04.450Z,10.33
2023-02-09T14:47:38.670Z,11.73
2023-02-09T14:51:13.673Z,10.63
2023-02-09T14:54:48.241Z,10.27
2023-02-09T14:58:19.160Z,12.20
2023-02-09T15:01:42.839Z,9.20
2023-02-09T15:05:07.220Z,9.20
2023-02-09T15:08:36.484Z,10.00
2023-02-09T15:12:08.337Z,9.47
2023-02-09T15:15:37.539Z,9.13
2023-02-09T15:19:03.851Z,8.77
2023-02-09T15:22:27.791Z,7.40
2023-02-09T15:25:51.570Z,8.83
2023-02-09T15:29:17.825Z,11.13
2023-02-09T15:32:41.758Z,10.30
2023-02-09T15:36:06.478Z,11.10
2023-02-09T15:39:31.495Z,14.77
2023-02-09T15:43:13.218Z,10.27
2023-02-09T15:47:07.534Z,11.97
2023-02-09T15:50:32.963Z,11.83
2023-02-09T15:53:59.548Z,12.10
2023-02-09T15:57:26.429Z,14.57
2023-02-09T16:00:50.866Z,12.77
2023-02-09T16:04:15.972Z,12.30
2023-02-09T16:07:39.901Z,14.80
2023-02-09T16:11:09.359Z,8.40
2023-02-09T16:14:35.488Z,14.20
2023-02-09T16:17:59.087Z,12.27
2023-02-09T16:21:28.094Z,12.63
2023-02-09T16:24:52.208Z,12.60
2023-02-09T16:28:16.081Z,24.97
2023-02-09T16:31:39.925Z,14.10
2023-02-09T16:35:16.296Z,18.03
2023-02-09T16:38:41.785Z,16.47
2023-02-09T16:42:12.149Z,14.70
2023-02-09T16:45:38.606Z,15.40
2023-02-09T16:49:02.795Z,13.13
2023-02-09T16:52:30.213Z,16.27
2023-02-09T16:55:55.084Z,14.30
2023-02-09T16:59:18.964Z,11.73
2023-02-09T17:02:49.383Z,18.17
2023-02-09T17:06:18.468Z,12.43
2023-02-09T17:09:42.417Z,13.47
2023-02-09T17:13:13.191Z,18.03
2023-02-09T17:16:41.577Z,15.30
2023-02-09T17:20:06.285Z,14.60
2023-02-09T17:23:31.767Z,15.40
2023-02-09T17:26:55.432Z,16.80
2023-02-09T17:30:20.888Z,17.30
2023-02-09T17:33:46.701Z,19.40
2023-02-09T17:37:15.669Z,16.20
2023-02-09T17:40:39.831Z,15.30
2023-02-09T17:44:28.649Z,12.47
2023-02-09T17:48:02.214Z,12.90
2023-02-09T17:51:34.388Z,11.27
2023-02-09T17:54:58.459Z,16.40
2023-02-09T17:58:22.863Z,13.17
2023-02-09T18:01:49.590Z,11.13
2023-02-09T18:05:21.470Z,13.63
2023-02-09T18:08:45.017Z,12.70
2023-02-09T18:12:16.655Z,14.00
2023-02-09T18:15:42.686Z,9.83
2023-02-09T18:19:06.297Z,11.87
2023-02-09T18:22:31.529Z,13.93
2023-02-09T18:25:55.104Z,11.70
2023-02-09T18:29:18.986Z,15.27
2023-02-09T18:32:42.754Z,15.20
2023-02-09T18:36:08.137Z,13.60
2023-02-09T18:39:35.725Z,20.50
2023-02-09T18:42:59.496Z,15.57
2023-02-09T18:46:24.550Z,16.07
2023-02-09T18:49:48.462Z,15.40
2023-02-09T18:53:12.838Z,15.60
2023-02-09T18:56:38.027Z,13.47
2023-02-09T19:00:04.858Z,15.27
2023-02-09T19:03:28.975Z,10.80
2023-02-09T19:06:52.937Z,14.27
2023-02-09T19:10:19.684Z,12.53
2023-02-09T19:14:04.759Z,11.30
2023-02-09T19:17:29.245Z,13.73
2023-02-09T19:20:55.631Z,17.67
2023-02-09T19:24:19.999Z,14.87
2023-02-09T19:27:43.793Z,15.70
2023-02-09T19:31:15.268Z,15.80
2023-02-09T19:34:41.010Z,12.77
2023-02-09T19:38:04.527Z,14.90
2023-02-09T19:41:28.318Z,18.40
2023-02-09T19:44:55.202Z,16.73
2023-02-09T19:48:20.238Z,14.17
2023-02-09T19:51:44.192Z,14.23
2023-02-09T19:55:08.825Z,13.27
2023-02-09T19:58:32.964Z,13.57
2023-02-09T20:01:56.584Z,17.70
2023-02-09T20:05:21.877Z,15.00
2023-02-09T20:08:46.027Z,12.73
2023-02-09T20:12:10.575Z,11.17
2023-02-09T20:15:34.611Z,12.93
2023-02-09T20:18:58.600Z,15.30
2023-02-09T20:22:23.862Z,12.67
2023-02-09T20:25:48.011Z,13.83
2023-02-09T20:29:12.191Z,13.00
2023-02-09T20:32:36.874Z,13.30
2023-02-09T20:36:01.008Z,13.23
2023-02-09T20:39:26.080Z,14.00
2023-02-09T20:43:07.264Z,15.13
2023-02-09T20:46:47.894Z,15.07
2023-02-09T20:50:13.911Z,13.10
2023-02-09T20:53:37.801Z,15.57
2023-02-09T20:57:03.043Z,14.67
2023-02-09T21:00:27.311Z,16.57
2023-02-09T21:03:51.342Z,17.10
2023-02-09T21:07:15.384Z,14.50
2023-02-09T21:10:39.341Z,13.47
2023-02-09T21:14:04.692Z,13.77
2023-02-09T21:17:28.827Z,14.77
2023-02-09T21:20:53.745Z,14.33
2023-02-09T21:24:18.073Z,13.60
2023-02-09T21:27:41.970Z,12.57
2023-02-09T21:31:12.855Z,10.40
2023-02-09T21:34:37.145Z,12.73
2023-02-09T21:38:00.711Z,12.47
2023-02-09T21:41:43.941Z,13.17
2023-02-09T21:45:08.512Z,10.97
2023-02-09T21:48:33.452Z,12.37
2023-02-09T21:51:56.965Z,11.70
2023-02-09T21:55:20.477Z,9.90
2023-02-09T21:58:44.803Z,11.00
2023-02-09T22:02:09.286Z,11.60
2023-02-09T22:05:34.157Z,12.43
2023-02-09T22:09:00.154Z,12.03
2023-02-09T22:12:23.674Z,14.10
2023-02-09T22:15:48.036Z,11.50
2023-02-09T22:19:11.999Z,11.00
2023-02-09T22:22:37.018Z,11.43
2023-02-09T22:26:01.070Z,10.37
2023-02-09T22:29:25.723Z,12.70
2023-02-09T22:32:49.327Z,10.90
2023-02-09T22:36:15.304Z,11.07
2023-02-09T22:39:40.185Z,13.60
2023-02-09T22:43:04.017Z,12.03
2023-02-09T22:46:31.489Z,11.73
2023-02-09T22:49:55.227Z,13.77
2023-02-09T22:53:19.065Z,12.10
2023-02-09T22:56:44.524Z,12.90
2023-02-09T23:00:12.110Z,11.93
2023-02-09T23:03:36.873Z,14.00
2023-02-09T23:07:01.066Z,13.73
2023-02-09T23:10:24.956Z,9.90
2023-02-09T23:13:57.660Z,11.23
2023-02-09T23:17:27.498Z,11.23
2023-02-09T23:20:51.415Z,14.20
2023-02-09T23:24:17.963Z,13.33
2023-02-09T23:27:41.519Z,11.37
2023-02-09T23:31:08.660Z,12.53
2023-02-09T23:34:33.464Z,10.73
2023-02-09T23:37:57.304Z,12.10
2023-02-09T23:41:21.296Z,15.00
2023-02-09T23:44:45.518Z,9.90
2023-02-09T23:48:10.787Z,14.70
2023-02-09T23:51:36.786Z,14.00
2023-02-09T23:55:00.586Z,12.03
2023-02-09T23:58:24.317Z,12.40
